sensor_id;sensor_type;location;lat;lon;timestamp;P1;durP1;ratioP1;P2;durP2;ratioP2
63316;SDS011;49822;41.468;13.560;2023-02-15T00:00:09;52.42;;;25.60;;
63316;SDS011;49822;41.468;13.560;2023-02-15T00:02:40;75.32;;;26.90;;
63316;SDS011;49822;41.468;13.560;2023-02-15T00:05:08;79.53;;;45.00;;
63316;SDS011;49822;41.468;13.560;2023-02-15T00:07:36;80.53;;;39.90;;
63316;SDS011;49822;41.468;13.560;2023-02-15T00:10:04;75.90;;;43.88;;
63316;SDS011;49822;41.468;13.560;2023-02-15T00:12:32;82.82;;;38.60;;
63316;SDS011;49822;41.468;13.560;2023-02-15T00:15:01;83.63;;;42.08;;
63316;SDS011;49822;41.468;13.560;2023-02-15T00:17:29;79.00;;;47.88;;
63316;SDS011;49822;41.468;13.560;2023-02-15T00:19:57;84.47;;;47.60;;
63316;SDS011;49822;41.468;13.560;2023-02-15T00:22:25;77.55;;;44.25;;
63316;SDS011;49822;41.468;13.560;2023-02-15T00:24:53;85.10;;;45.72;;
63316;SDS011;49822;41.468;13.560;2023-02-15T00:27:20;75.82;;;43.63;;
63316;SDS011;49822;41.468;13.560;2023-02-15T00:29:48;72.68;;;36.03;;
63316;SDS011;49822;41.468;13.560;2023-02-15T00:32:16;71.82;;;40.60;;
63316;SDS011;49822;41.468;13.560;2023-02-15T00:34:45;47.70;;;27.85;;
63316;SDS011;49822;41.468;13.560;2023-02-15T00:37:13;58.05;;;26.05;;
63316;SDS011;49822;41.468;13.560;2023-02-15T00:39:41;64.55;;;25.00;;
63316;SDS011;49822;41.468;13.560;2023-02-15T00:42:08;56.10;;;23.80;;
63316;SDS011;49822;41.468;13.560;2023-02-15T00:44:36;51.15;;;21.27;;
63316;SDS011;49822;41.468;13.560;2023-02-15T00:47:04;46.58;;;28.55;;
63316;SDS011;49822;41.468;13.560;2023-02-15T00:49:32;45.28;;;30.65;;
63316;SDS011;49822;41.468;13.560;2023-02-15T00:52:00;57.03;;;29.08;;
63316;SDS011;49822;41.468;13.560;2023-02-15T00:54:27;41.92;;;19.33;;
63316;SDS011;49822;41.468;13.560;2023-02-15T00:56:55;187.57;;;40.28;;
63316;SDS011;49822;41.468;13.560;2023-02-15T00:59:22;222.85;;;52.08;;
63316;SDS011;49822;41.468;13.560;2023-02-15T01:01:50;97.15;;;28.38;;
63316;SDS011;49822;41.468;13.560;2023-02-15T01:04:18;55.30;;;21.05;;
63316;SDS011;49822;41.468;13.560;2023-02-15T01:06:46;56.95;;;21.17;;
63316;SDS011;49822;41.468;13.560;2023-02-15T01:09:13;50.25;;;21.13;;
63316;SDS011;49822;41.468;13.560;2023-02-15T01:11:41;42.53;;;19.88;;
63316;SDS011;49822;41.468;13.560;2023-02-15T01:14:10;46.10;;;21.10;;
63316;SDS011;49822;41.468;13.560;2023-02-15T01:16:37;52.92;;;21.67;;
63316;SDS011;49822;41.468;13.560;2023-02-15T01:19:05;48.45;;;19.85;;
63316;SDS011;49822;41.468;13.560;2023-02-15T01:21:33;82.15;;;25.30;;
63316;SDS011;49822;41.468;13.560;2023-02-15T01:24:01;66.95;;;21.55;;
63316;SDS011;49822;41.468;13.560;2023-02-15T01:26:29;59.05;;;20.20;;
63316;SDS011;49822;41.468;13.560;2023-02-15T01:28:57;53.25;;;22.02;;
63316;SDS011;49822;41.468;13.560;2023-02-15T01:31:25;46.75;;;19.08;;
63316;SDS011;49822;41.468;13.560;2023-02-15T01:33:53;49.40;;;20.52;;
63316;SDS011;49822;41.468;13.560;2023-02-15T01:36:20;49.28;;;22.17;;
63316;SDS011;49822;41.468;13.560;2023-02-15T01:38:50;70.28;;;20.48;;
63316;SDS011;49822;41.468;13.560;2023-02-15T01:41:18;60.33;;;21.75;;
63316;SDS011;49822;41.468;13.560;2023-02-15T01:43:57;67.47;;;28.08;;
63316;SDS011;49822;41.468;13.560;2023-02-15T01:46:28;52.00;;;22.05;;
63316;SDS011;49822;41.468;13.560;2023-02-15T01:49:14;48.35;;;19.23;;
63316;SDS011;49822;41.468;13.560;2023-02-15T01:51:47;42.85;;;20.17;;
63316;SDS011;49822;41.468;13.560;2023-02-15T01:54:29;42.05;;;17.40;;
63316;SDS011;49822;41.468;13.560;2023-02-15T01:57:04;51.13;;;22.17;;
63316;SDS011;49822;41.468;13.560;2023-02-15T01:59:36;51.58;;;20.15;;
63316;SDS011;49822;41.468;13.560;2023-02-15T02:02:07;62.65;;;23.40;;
63316;SDS011;49822;41.468;13.560;2023-02-15T02:04:43;54.50;;;21.25;;
63316;SDS011;49822;41.468;13.560;2023-02-15T02:07:19;55.53;;;21.03;;
63316;SDS011;49822;41.468;13.560;2023-02-15T02:09:50;57.88;;;21.48;;
63316;SDS011;49822;41.468;13.560;2023-02-15T02:12:22;47.35;;;19.45;;
63316;SDS011;49822;41.468;13.560;2023-02-15T02:14:51;54.78;;;21.45;;
63316;SDS011;49822;41.468;13.560;2023-02-15T02:17:26;52.20;;;21.35;;
63316;SDS011;49822;41.468;13.560;2023-02-15T02:27:56;49.30;;;19.55;;
63316;SDS011;49822;41.468;13.560;2023-02-15T02:38:42;45.30;;;18.00;;
63316;SDS011;49822;41.468;13.560;2023-02-15T02:50:16;42.88;;;18.80;;
63316;SDS011;49822;41.468;13.560;2023-02-15T02:52:49;40.75;;;17.20;;
63316;SDS011;49822;41.468;13.560;2023-02-15T02:55:31;34.20;;;14.65;;
63316;SDS011;49822;41.468;13.560;2023-02-15T03:00:48;42.95;;;16.45;;
63316;SDS011;49822;41.468;13.560;2023-02-15T03:03:38;34.30;;;16.42;;
63316;SDS011;49822;41.468;13.560;2023-02-15T03:06:12;41.88;;;17.75;;
63316;SDS011;49822;41.468;13.560;2023-02-15T03:08:51;50.03;;;18.88;;
63316;SDS011;49822;41.468;13.560;2023-02-15T03:11:28;34.33;;;15.73;;
63316;SDS011;49822;41.468;13.560;2023-02-15T03:13:58;46.10;;;16.55;;
63316;SDS011;49822;41.468;13.560;2023-02-15T03:16:25;42.95;;;17.52;;
63316;SDS011;49822;41.468;13.560;2023-02-15T03:19:00;40.78;;;16.92;;
63316;SDS011;49822;41.468;13.560;2023-02-15T03:21:48;44.33;;;17.23;;
63316;SDS011;49822;41.468;13.560;2023-02-15T03:27:18;38.60;;;16.92;;
63316;SDS011;49822;41.468;13.560;2023-02-15T03:29:50;60.58;;;19.65;;
63316;SDS011;49822;41.468;13.560;2023-02-15T03:32:20;52.03;;;20.75;;
63316;SDS011;49822;41.468;13.560;2023-02-15T03:34:49;48.13;;;20.58;;
63316;SDS011;49822;41.468;13.560;2023-02-15T03:42:43;38.63;;;18.33;;
63316;SDS011;49822;41.468;13.560;2023-02-15T03:45:15;41.63;;;16.92;;
63316;SDS011;49822;41.468;13.560;2023-02-15T03:47:50;40.47;;;17.60;;
63316;SDS011;49822;41.468;13.560;2023-02-15T03:50:22;47.70;;;19.17;;
63316;SDS011;49822;41.468;13.560;2023-02-15T03:53:14;44.88;;;19.60;;
63316;SDS011;49822;41.468;13.560;2023-02-15T03:55:48;38.38;;;16.33;;
63316;SDS011;49822;41.468;13.560;2023-02-15T03:58:17;37.60;;;17.23;;
63316;SDS011;49822;41.468;13.560;2023-02-15T04:01:04;38.20;;;16.85;;
63316;SDS011;49822;41.468;13.560;2023-02-15T04:03:57;50.20;;;19.42;;
63316;SDS011;49822;41.468;13.560;2023-02-15T04:06:34;39.00;;;17.80;;
63316;SDS011;49822;41.468;13.560;2023-02-15T04:09:02;37.05;;;14.95;;
63316;SDS011;49822;41.468;13.560;2023-02-15T04:11:48;44.75;;;17.67;;
63316;SDS011;49822;41.468;13.560;2023-02-15T04:14:17;91.53;;;26.23;;
63316;SDS011;49822;41.468;13.560;2023-02-15T04:17:05;104.22;;;32.03;;
63316;SDS011;49822;41.468;13.560;2023-02-15T04:19:34;46.67;;;18.90;;
63316;SDS011;49822;41.468;13.560;2023-02-15T04:22:20;29.70;;;14.77;;
63316;SDS011;49822;41.468;13.560;2023-02-15T04:25:06;28.15;;;14.13;;
63316;SDS011;49822;41.468;13.560;2023-02-15T04:27:40;31.40;;;15.65;;
63316;SDS011;49822;41.468;13.560;2023-02-15T04:30:17;44.58;;;16.83;;
63316;SDS011;49822;41.468;13.560;2023-02-15T04:32:47;37.22;;;16.75;;
63316;SDS011;49822;41.468;13.560;2023-02-15T04:35:16;34.22;;;15.93;;
63316;SDS011;49822;41.468;13.560;2023-02-15T04:37:44;44.03;;;19.40;;
63316;SDS011;49822;41.468;13.560;2023-02-15T04:40:13;173.68;;;38.42;;
63316;SDS011;49822;41.468;13.560;2023-02-15T04:42:51;81.72;;;27.90;;
63316;SDS011;49822;41.468;13.560;2023-02-15T04:45:56;48.58;;;20.33;;
63316;SDS011;49822;41.468;13.560;2023-02-15T04:48:25;31.08;;;15.68;;
63316;SDS011;49822;41.468;13.560;2023-02-15T04:50:53;31.08;;;15.93;;
63316;SDS011;49822;41.468;13.560;2023-02-15T04:53:21;57.30;;;20.88;;
63316;SDS011;49822;41.468;13.560;2023-02-15T04:55:48;156.40;;;47.10;;
63316;SDS011;49822;41.468;13.560;2023-02-15T04:58:16;73.22;;;28.00;;
63316;SDS011;49822;41.468;13.560;2023-02-15T05:00:44;43.20;;;20.88;;
63316;SDS011;49822;41.468;13.560;2023-02-15T05:03:13;40.38;;;18.73;;
63316;SDS011;49822;41.468;13.560;2023-02-15T05:05:41;52.63;;;19.95;;
63316;SDS011;49822;41.468;13.560;2023-02-15T05:08:09;113.70;;;28.83;;
63316;SDS011;49822;41.468;13.560;2023-02-15T05:10:37;98.82;;;29.95;;
63316;SDS011;49822;41.468;13.560;2023-02-15T05:13:04;42.13;;;18.15;;
63316;SDS011;49822;41.468;13.560;2023-02-15T05:15:33;34.20;;;16.25;;
63316;SDS011;49822;41.468;13.560;2023-02-15T05:18:03;58.78;;;20.25;;
63316;SDS011;49822;41.468;13.560;2023-02-15T05:20:33;78.90;;;29.90;;
63316;SDS011;49822;41.468;13.560;2023-02-15T05:23:00;59.38;;;28.92;;
63316;SDS011;49822;41.468;13.560;2023-02-15T05:25:28;38.78;;;18.05;;
63316;SDS011;49822;41.468;13.560;2023-02-15T05:28:15;29.30;;;13.70;;
63316;SDS011;49822;41.468;13.560;2023-02-15T05:30:49;32.60;;;15.63;;
63316;SDS011;49822;41.468;13.560;2023-02-15T05:33:31;32.20;;;17.50;;
63316;SDS011;49822;41.468;13.560;2023-02-15T05:35:59;33.63;;;17.33;;
63316;SDS011;49822;41.468;13.560;2023-02-15T05:38:28;26.00;;;14.55;;
63316;SDS011;49822;41.468;13.560;2023-02-15T05:40:56;31.85;;;15.82;;
63316;SDS011;49822;41.468;13.560;2023-02-15T05:43:25;34.47;;;15.93;;
63316;SDS011;49822;41.468;13.560;2023-02-15T05:45:54;38.65;;;17.95;;
63316;SDS011;49822;41.468;13.560;2023-02-15T05:48:23;37.78;;;15.20;;
63316;SDS011;49822;41.468;13.560;2023-02-15T05:51:02;26.02;;;13.88;;
63316;SDS011;49822;41.468;13.560;2023-02-15T05:53:39;27.42;;;15.00;;
63316;SDS011;49822;41.468;13.560;2023-02-15T05:56:08;31.25;;;14.70;;
63316;SDS011;49822;41.468;13.560;2023-02-15T05:58:37;35.20;;;13.80;;
63316;SDS011;49822;41.468;13.560;2023-02-15T06:01:07;30.88;;;15.02;;
63316;SDS011;49822;41.468;13.560;2023-02-15T06:03:39;25.25;;;12.13;;
63316;SDS011;49822;41.468;13.560;2023-02-15T06:06:08;27.02;;;12.90;;
63316;SDS011;49822;41.468;13.560;2023-02-15T06:08:36;21.13;;;11.38;;
63316;SDS011;49822;41.468;13.560;2023-02-15T06:11:05;34.28;;;15.75;;
63316;SDS011;49822;41.468;13.560;2023-02-15T06:13:35;28.67;;;15.60;;
63316;SDS011;49822;41.468;13.560;2023-02-15T06:16:05;33.03;;;16.40;;
63316;SDS011;49822;41.468;13.560;2023-02-15T06:18:34;36.47;;;15.60;;
63316;SDS011;49822;41.468;13.560;2023-02-15T06:21:01;25.77;;;13.82;;
63316;SDS011;49822;41.468;13.560;2023-02-15T06:23:29;29.02;;;13.23;;
63316;SDS011;49822;41.468;13.560;2023-02-15T06:25:57;26.08;;;13.23;;
63316;SDS011;49822;41.468;13.560;2023-02-15T06:28:26;27.17;;;13.27;;
63316;SDS011;49822;41.468;13.560;2023-02-15T06:30:54;26.85;;;12.55;;
63316;SDS011;49822;41.468;13.560;2023-02-15T06:33:21;27.20;;;13.45;;
63316;SDS011;49822;41.468;13.560;2023-02-15T06:35:50;27.10;;;13.23;;
63316;SDS011;49822;41.468;13.560;2023-02-15T06:38:17;33.80;;;16.00;;
63316;SDS011;49822;41.468;13.560;2023-02-15T06:40:45;28.42;;;12.68;;
63316;SDS011;49822;41.468;13.560;2023-02-15T06:43:13;23.77;;;11.90;;
63316;SDS011;49822;41.468;13.560;2023-02-15T06:45:41;31.35;;;13.95;;
63316;SDS011;49822;41.468;13.560;2023-02-15T06:48:09;36.95;;;16.50;;
63316;SDS011;49822;41.468;13.560;2023-02-15T06:50:37;26.25;;;11.73;;
63316;SDS011;49822;41.468;13.560;2023-02-15T06:53:05;28.77;;;14.85;;
63316;SDS011;49822;41.468;13.560;2023-02-15T06:55:33;35.88;;;16.08;;
63316;SDS011;49822;41.468;13.560;2023-02-15T06:58:00;26.77;;;14.57;;
63316;SDS011;49822;41.468;13.560;2023-02-15T07:00:28;28.08;;;15.35;;
63316;SDS011;49822;41.468;13.560;2023-02-15T07:03:01;48.92;;;22.13;;
63316;SDS011;49822;41.468;13.560;2023-02-15T07:05:35;48.03;;;23.73;;
63316;SDS011;49822;41.468;13.560;2023-02-15T07:08:03;41.90;;;21.83;;
63316;SDS011;49822;41.468;13.560;2023-02-15T07:10:31;41.00;;;19.60;;
63316;SDS011;49822;41.468;13.560;2023-02-15T07:12:58;27.05;;;14.07;;
63316;SDS011;49822;41.468;13.560;2023-02-15T07:15:26;34.08;;;17.45;;
63316;SDS011;49822;41.468;13.560;2023-02-15T07:17:58;34.03;;;15.80;;
63316;SDS011;49822;41.468;13.560;2023-02-15T07:20:25;32.97;;;16.98;;
63316;SDS011;49822;41.468;13.560;2023-02-15T07:22:53;35.72;;;19.45;;
63316;SDS011;49822;41.468;13.560;2023-02-15T07:25:20;36.95;;;19.38;;
63316;SDS011;49822;41.468;13.560;2023-02-15T07:27:57;35.55;;;19.13;;
63316;SDS011;49822;41.468;13.560;2023-02-15T07:30:29;35.97;;;21.48;;
63316;SDS011;49822;41.468;13.560;2023-02-15T07:33:02;38.65;;;19.73;;
63316;SDS011;49822;41.468;13.560;2023-02-15T07:35:49;33.63;;;16.65;;
63316;SDS011;49822;41.468;13.560;2023-02-15T07:38:19;28.35;;;14.70;;
63316;SDS011;49822;41.468;13.560;2023-02-15T07:40:47;27.73;;;15.25;;
63316;SDS011;49822;41.468;13.560;2023-02-15T07:43:15;32.67;;;15.70;;
63316;SDS011;49822;41.468;13.560;2023-02-15T07:45:44;25.42;;;12.77;;
63316;SDS011;49822;41.468;13.560;2023-02-15T07:48:11;36.38;;;20.73;;
63316;SDS011;49822;41.468;13.560;2023-02-15T07:50:40;30.17;;;17.63;;
63316;SDS011;49822;41.468;13.560;2023-02-15T07:53:07;33.33;;;16.73;;
63316;SDS011;49822;41.468;13.560;2023-02-15T07:55:35;26.33;;;15.05;;
63316;SDS011;49822;41.468;13.560;2023-02-15T07:58:04;27.10;;;15.65;;
63316;SDS011;49822;41.468;13.560;2023-02-15T08:00:32;26.15;;;15.57;;
63316;SDS011;49822;41.468;13.560;2023-02-15T08:03:23;25.83;;;14.30;;
63316;SDS011;49822;41.468;13.560;2023-02-15T08:05:57;25.98;;;12.27;;
63316;SDS011;49822;41.468;13.560;2023-02-15T08:08:27;38.75;;;17.95;;
63316;SDS011;49822;41.468;13.560;2023-02-15T08:11:05;31.30;;;16.38;;
63316;SDS011;49822;41.468;13.560;2023-02-15T08:13:56;30.38;;;16.35;;
63316;SDS011;49822;41.468;13.560;2023-02-15T08:16:27;34.13;;;17.35;;
63316;SDS011;49822;41.468;13.560;2023-02-15T08:19:18;32.78;;;18.77;;
63316;SDS011;49822;41.468;13.560;2023-02-15T08:21:52;29.83;;;16.20;;
63316;SDS011;49822;41.468;13.560;2023-02-15T08:24:32;32.75;;;19.77;;
63316;SDS011;49822;41.468;13.560;2023-02-15T08:27:02;37.08;;;23.55;;
63316;SDS011;49822;41.468;13.560;2023-02-15T08:32:00;36.83;;;20.45;;
63316;SDS011;49822;41.468;13.560;2023-02-15T08:34:46;29.63;;;17.25;;
63316;SDS011;49822;41.468;13.560;2023-02-15T08:37:15;36.38;;;20.85;;
63316;SDS011;49822;41.468;13.560;2023-02-15T08:39:42;41.47;;;23.00;;
63316;SDS011;49822;41.468;13.560;2023-02-15T08:42:10;41.03;;;23.08;;
63316;SDS011;49822;41.468;13.560;2023-02-15T08:44:37;44.45;;;26.52;;
63316;SDS011;49822;41.468;13.560;2023-02-15T08:47:05;37.53;;;20.88;;
63316;SDS011;49822;41.468;13.560;2023-02-15T08:49:33;32.85;;;20.85;;
63316;SDS011;49822;41.468;13.560;2023-02-15T08:52:00;35.05;;;20.75;;
63316;SDS011;49822;41.468;13.560;2023-02-15T08:54:27;34.08;;;21.10;;
63316;SDS011;49822;41.468;13.560;2023-02-15T08:56:56;37.50;;;22.30;;
63316;SDS011;49822;41.468;13.560;2023-02-15T08:59:23;28.35;;;18.40;;
63316;SDS011;49822;41.468;13.560;2023-02-15T09:01:53;40.75;;;24.17;;
63316;SDS011;49822;41.468;13.560;2023-02-15T09:04:22;37.78;;;24.88;;
63316;SDS011;49822;41.468;13.560;2023-02-15T09:06:50;37.25;;;23.42;;
63316;SDS011;49822;41.468;13.560;2023-02-15T09:09:18;34.70;;;20.52;;
63316;SDS011;49822;41.468;13.560;2023-02-15T09:11:48;33.97;;;22.13;;
63316;SDS011;49822;41.468;13.560;2023-02-15T09:14:24;28.02;;;19.08;;
63316;SDS011;49822;41.468;13.560;2023-02-15T09:16:54;33.03;;;20.35;;
63316;SDS011;49822;41.468;13.560;2023-02-15T09:19:23;30.75;;;19.52;;
63316;SDS011;49822;41.468;13.560;2023-02-15T09:21:51;27.58;;;17.08;;
63316;SDS011;49822;41.468;13.560;2023-02-15T09:24:19;24.42;;;16.23;;
63316;SDS011;49822;41.468;13.560;2023-02-15T09:26:47;28.95;;;17.63;;
63316;SDS011;49822;41.468;13.560;2023-02-15T09:29:17;31.88;;;19.33;;
63316;SDS011;49822;41.468;13.560;2023-02-15T09:31:46;35.83;;;21.88;;
63316;SDS011;49822;41.468;13.560;2023-02-15T09:34:17;31.70;;;19.50;;
63316;SDS011;49822;41.468;13.560;2023-02-15T09:36:47;30.95;;;19.55;;
63316;SDS011;49822;41.468;13.560;2023-02-15T09:39:20;34.70;;;22.05;;
63316;SDS011;49822;41.468;13.560;2023-02-15T09:42:00;33.63;;;21.27;;
63316;SDS011;49822;41.468;13.560;2023-02-15T09:50:40;35.38;;;21.65;;
63316;SDS011;49822;41.468;13.560;2023-02-15T09:55:57;34.08;;;22.58;;
63316;SDS011;49822;41.468;13.560;2023-02-15T10:01:27;35.47;;;23.45;;
63316;SDS011;49822;41.468;13.560;2023-02-15T10:04:39;38.95;;;23.70;;
63316;SDS011;49822;41.468;13.560;2023-02-15T10:13:14;45.72;;;26.83;;
63316;SDS011;49822;41.468;13.560;2023-02-15T10:16:56;40.15;;;25.80;;
63316;SDS011;49822;41.468;13.560;2023-02-15T10:27:43;41.58;;;23.85;;
63316;SDS011;49822;41.468;13.560;2023-02-15T10:30:15;44.55;;;25.00;;
63316;SDS011;49822;41.468;13.560;2023-02-15T10:32:52;77.38;;;36.55;;
63316;SDS011;49822;41.468;13.560;2023-02-15T10:38:44;39.88;;;25.05;;
63316;SDS011;49822;41.468;13.560;2023-02-15T10:57:59;42.33;;;26.27;;
63316;SDS011;49822;41.468;13.560;2023-02-15T11:00:54;35.80;;;22.52;;
63316;SDS011;49822;41.468;13.560;2023-02-15T11:06:20;37.55;;;23.83;;
63316;SDS011;49822;41.468;13.560;2023-02-15T11:08:57;42.65;;;24.77;;
63316;SDS011;49822;41.468;13.560;2023-02-15T11:11:30;44.25;;;28.45;;
63316;SDS011;49822;41.468;13.560;2023-02-15T11:14:05;42.33;;;27.08;;
63316;SDS011;49822;41.468;13.560;2023-02-15T11:16:59;49.47;;;30.38;;
63316;SDS011;49822;41.468;13.560;2023-02-15T11:19:34;55.17;;;32.75;;
63316;SDS011;49822;41.468;13.560;2023-02-15T11:22:09;61.80;;;37.22;;
63316;SDS011;49822;41.468;13.560;2023-02-15T11:24:40;59.03;;;35.03;;
63316;SDS011;49822;41.468;13.560;2023-02-15T11:27:16;57.58;;;36.97;;
63316;SDS011;49822;41.468;13.560;2023-02-15T11:30:12;70.53;;;36.38;;
63316;SDS011;49822;41.468;13.560;2023-02-15T11:32:45;61.45;;;35.35;;
63316;SDS011;49822;41.468;13.560;2023-02-15T11:35:22;55.83;;;31.73;;
63316;SDS011;49822;41.468;13.560;2023-02-15T11:37:57;59.47;;;34.10;;
63316;SDS011;49822;41.468;13.560;2023-02-15T11:40:33;54.30;;;33.08;;
63316;SDS011;49822;41.468;13.560;2023-02-15T11:43:13;58.00;;;34.72;;
63316;SDS011;49822;41.468;13.560;2023-02-15T11:45:46;59.00;;;33.45;;
63316;SDS011;49822;41.468;13.560;2023-02-15T11:48:16;60.55;;;31.85;;
63316;SDS011;49822;41.468;13.560;2023-02-15T11:50:44;60.38;;;32.67;;
63316;SDS011;49822;41.468;13.560;2023-02-15T11:53:13;63.13;;;33.50;;
63316;SDS011;49822;41.468;13.560;2023-02-15T11:55:45;70.55;;;36.30;;
63316;SDS011;49822;41.468;13.560;2023-02-15T12:01:09;57.17;;;32.53;;
63316;SDS011;49822;41.468;13.560;2023-02-15T12:03:52;56.70;;;31.70;;
63316;SDS011;49822;41.468;13.560;2023-02-15T12:06:44;64.55;;;32.08;;
63316;SDS011;49822;41.468;13.560;2023-02-15T12:09:28;69.25;;;40.95;;
63316;SDS011;49822;41.468;13.560;2023-02-15T12:12:40;68.05;;;32.78;;
63316;SDS011;49822;41.468;13.560;2023-02-15T12:15:07;64.22;;;32.83;;
63316;SDS011;49822;41.468;13.560;2023-02-15T12:20:25;60.75;;;31.15;;
63316;SDS011;49822;41.468;13.560;2023-02-15T12:23:01;60.55;;;31.52;;
63316;SDS011;49822;41.468;13.560;2023-02-15T12:28:23;61.05;;;29.88;;
63316;SDS011;49822;41.468;13.560;2023-02-15T12:31:49;56.38;;;29.75;;
63316;SDS011;49822;41.468;13.560;2023-02-15T12:34:04;55.83;;;31.77;;
63316;SDS011;49822;41.468;13.560;2023-02-15T12:36:46;52.92;;;27.15;;
63316;SDS011;49822;41.468;13.560;2023-02-15T12:39:23;55.33;;;27.90;;
63316;SDS011;49822;41.468;13.560;2023-02-15T12:44:26;61.35;;;32.20;;
63316;SDS011;49822;41.468;13.560;2023-02-15T12:47:00;63.28;;;33.00;;
63316;SDS011;49822;41.468;13.560;2023-02-15T12:49:33;59.92;;;31.02;;
63316;SDS011;49822;41.468;13.560;2023-02-15T12:52:11;58.28;;;30.10;;
63316;SDS011;49822;41.468;13.560;2023-02-15T12:54:51;56.28;;;28.23;;
63316;SDS011;49822;41.468;13.560;2023-02-15T12:57:23;55.63;;;30.33;;
63316;SDS011;49822;41.468;13.560;2023-02-15T12:59:59;64.07;;;30.35;;
63316;SDS011;49822;41.468;13.560;2023-02-15T13:02:34;49.13;;;23.35;;
63316;SDS011;49822;41.468;13.560;2023-02-15T13:07:47;52.55;;;25.30;;
63316;SDS011;49822;41.468;13.560;2023-02-15T13:13:11;35.95;;;18.15;;
63316;SDS011;49822;41.468;13.560;2023-02-15T13:15:50;41.70;;;18.92;;
63316;SDS011;49822;41.468;13.560;2023-02-15T13:21:12;68.00;;;35.05;;
63316;SDS011;49822;41.468;13.560;2023-02-15T13:23:51;52.30;;;26.55;;
63316;SDS011;49822;41.468;13.560;2023-02-15T13:26:25;51.80;;;26.67;;
63316;SDS011;49822;41.468;13.560;2023-02-15T13:28:57;56.55;;;27.67;;
63316;SDS011;49822;41.468;13.560;2023-02-15T13:31:28;53.08;;;29.20;;
63316;SDS011;49822;41.468;13.560;2023-02-15T13:34:08;56.05;;;32.25;;
63316;SDS011;49822;41.468;13.560;2023-02-15T13:42:49;88.40;;;39.10;;
63316;SDS011;49822;41.468;13.560;2023-02-15T13:51:00;50.42;;;29.63;;
63316;SDS011;49822;41.468;13.560;2023-02-15T13:53:47;55.28;;;29.85;;
63316;SDS011;49822;41.468;13.560;2023-02-15T13:56:40;57.25;;;29.90;;
63316;SDS011;49822;41.468;13.560;2023-02-15T13:59:31;55.50;;;28.88;;
63316;SDS011;49822;41.468;13.560;2023-02-15T14:07:25;61.15;;;30.85;;
63316;SDS011;49822;41.468;13.560;2023-02-15T14:13:15;88.20;;;38.78;;
63316;SDS011;49822;41.468;13.560;2023-02-15T14:16:09;75.35;;;34.78;;
63316;SDS011;49822;41.468;13.560;2023-02-15T14:18:59;51.45;;;29.80;;
63316;SDS011;49822;41.468;13.560;2023-02-15T14:24:38;65.45;;;35.40;;
63316;SDS011;49822;41.468;13.560;2023-02-15T14:27:15;85.72;;;39.72;;
63316;SDS011;49822;41.468;13.560;2023-02-15T14:30:15;57.35;;;30.92;;
63316;SDS011;49822;41.468;13.560;2023-02-15T14:33:17;51.40;;;27.92;;
63316;SDS011;49822;41.468;13.560;2023-02-15T14:35:52;58.10;;;29.48;;
63316;SDS011;49822;41.468;13.560;2023-02-15T14:49:52;61.17;;;31.20;;
63316;SDS011;49822;41.468;13.560;2023-02-15T14:52:19;55.70;;;29.80;;
63316;SDS011;49822;41.468;13.560;2023-02-15T15:12:50;57.65;;;28.40;;
63316;SDS011;49822;41.468;13.560;2023-02-15T15:25:49;71.80;;;38.30;;
63316;SDS011;49822;41.468;13.560;2023-02-15T15:28:52;64.70;;;34.08;;
63316;SDS011;49822;41.468;13.560;2023-02-15T15:31:36;71.93;;;37.90;;
63316;SDS011;49822;41.468;13.560;2023-02-15T15:48:53;55.63;;;29.10;;
63316;SDS011;49822;41.468;13.560;2023-02-15T15:51:24;54.15;;;28.27;;
63316;SDS011;49822;41.468;13.560;2023-02-15T15:53:59;49.40;;;25.20;;
63316;SDS011;49822;41.468;13.560;2023-02-15T15:56:31;58.45;;;28.58;;
63316;SDS011;49822;41.468;13.560;2023-02-15T15:59:05;62.10;;;29.30;;
63316;SDS011;49822;41.468;13.560;2023-02-15T16:01:41;64.10;;;30.15;;
63316;SDS011;49822;41.468;13.560;2023-02-15T16:04:13;54.95;;;25.90;;
63316;SDS011;49822;41.468;13.560;2023-02-15T16:06:48;55.13;;;26.15;;
63316;SDS011;49822;41.468;13.560;2023-02-15T16:09:21;50.83;;;26.70;;
63316;SDS011;49822;41.468;13.560;2023-02-15T16:15:23;56.60;;;30.50;;
63316;SDS011;49822;41.468;13.560;2023-02-15T16:17:58;57.60;;;32.70;;
63316;SDS011;49822;41.468;13.560;2023-02-15T16:20:28;54.55;;;29.48;;
63316;SDS011;49822;41.468;13.560;2023-02-15T16:26:18;64.18;;;28.58;;
63316;SDS011;49822;41.468;13.560;2023-02-15T16:31:41;51.10;;;23.98;;
63316;SDS011;49822;41.468;13.560;2023-02-15T16:34:15;47.72;;;24.83;;
63316;SDS011;49822;41.468;13.560;2023-02-15T16:36:44;43.67;;;22.45;;
63316;SDS011;49822;41.468;13.560;2023-02-15T16:39:17;54.95;;;25.65;;
63316;SDS011;49822;41.468;13.560;2023-02-15T16:41:46;47.20;;;24.35;;
63316;SDS011;49822;41.468;13.560;2023-02-15T16:44:19;60.13;;;27.25;;
63316;SDS011;49822;41.468;13.560;2023-02-15T16:46:50;71.00;;;34.35;;
63316;SDS011;49822;41.468;13.560;2023-02-15T16:49:25;58.90;;;30.40;;
63316;SDS011;49822;41.468;13.560;2023-02-15T16:52:01;55.38;;;26.77;;
63316;SDS011;49822;41.468;13.560;2023-02-15T16:54:32;71.05;;;32.72;;
63316;SDS011;49822;41.468;13.560;2023-02-15T16:57:01;59.67;;;28.70;;
63316;SDS011;49822;41.468;13.560;2023-02-15T16:59:31;55.97;;;26.77;;
63316;SDS011;49822;41.468;13.560;2023-02-15T17:02:06;64.90;;;30.85;;
63316;SDS011;49822;41.468;13.560;2023-02-15T17:05:13;55.10;;;26.58;;
63316;SDS011;49822;41.468;13.560;2023-02-15T17:10:34;63.00;;;25.73;;
63316;SDS011;49822;41.468;13.560;2023-02-15T17:13:10;55.65;;;25.73;;
63316;SDS011;49822;41.468;13.560;2023-02-15T17:18:51;61.70;;;27.15;;
63316;SDS011;49822;41.468;13.560;2023-02-15T17:21:20;54.63;;;26.17;;
63316;SDS011;49822;41.468;13.560;2023-02-15T17:23:58;56.50;;;29.90;;
63316;SDS011;49822;41.468;13.560;2023-02-15T17:26:28;52.47;;;26.13;;
63316;SDS011;49822;41.468;13.560;2023-02-15T17:29:11;62.58;;;26.80;;
63316;SDS011;49822;41.468;13.560;2023-02-15T17:31:42;58.25;;;28.58;;
63316;SDS011;49822;41.468;13.560;2023-02-15T17:35:17;80.57;;;34.40;;
63316;SDS011;49822;41.468;13.560;2023-02-15T17:37:26;79.35;;;34.30;;
63316;SDS011;49822;41.468;13.560;2023-02-15T17:39:57;56.28;;;27.73;;
63316;SDS011;49822;41.468;13.560;2023-02-15T17:42:26;66.55;;;33.63;;
63316;SDS011;49822;41.468;13.560;2023-02-15T17:44:54;63.22;;;30.00;;
63316;SDS011;49822;41.468;13.560;2023-02-15T17:47:23;63.05;;;31.77;;
63316;SDS011;49822;41.468;13.560;2023-02-15T17:49:54;64.75;;;29.38;;
63316;SDS011;49822;41.468;13.560;2023-02-15T17:52:22;77.72;;;31.85;;
63316;SDS011;49822;41.468;13.560;2023-02-15T17:54:57;69.70;;;34.22;;
63316;SDS011;49822;41.468;13.560;2023-02-15T17:57:50;108.78;;;45.78;;
63316;SDS011;49822;41.468;13.560;2023-02-15T18:00:19;92.43;;;38.70;;
63316;SDS011;49822;41.468;13.560;2023-02-15T18:03:08;66.20;;;33.55;;
63316;SDS011;49822;41.468;13.560;2023-02-15T18:05:56;66.93;;;32.15;;